createdAt,value
2019-05-12T00:00:18.390Z,17.80
2019-05-12T00:02:52.252Z,18.42
2019-05-12T00:05:27.749Z,18.75
2019-05-12T00:08:00.470Z,19.32
2019-05-12T00:10:33.732Z,20.50
2019-05-12T00:13:08.406Z,19.27
2019-05-12T00:15:42.485Z,19.85
2019-05-12T00:18:18.080Z,21.55
2019-05-12T00:20:51.303Z,21.55
2019-05-12T00:23:28.075Z,27.25
2019-05-12T00:25:59.492Z,22.62
2019-05-12T00:28:33.253Z,22.32
2019-05-12T00:31:08.368Z,23.50
2019-05-12T00:33:42.414Z,21.50
2019-05-12T00:36:18.578Z,18.77
2019-05-12T00:38:51.467Z,25.50
2019-05-12T00:41:25.254Z,24.05
2019-05-12T00:43:59.490Z,26.87
2019-05-12T00:46:33.359Z,24.18
2019-05-12T00:49:08.197Z,23.32
2019-05-12T00:51:41.565Z,24.75
2019-05-12T00:54:14.435Z,24.02
2019-05-12T00:56:48.158Z,28.32
2019-05-12T00:59:20.945Z,21.07
2019-05-12T01:01:54.330Z,24.47
2019-05-12T01:04:29.136Z,26.17
2019-05-12T01:07:03.155Z,22.93
2019-05-12T01:09:38.423Z,25.85
2019-05-12T01:12:12.540Z,26.60
2019-05-12T01:14:47.826Z,23.42
2019-05-12T01:17:21.700Z,24.55
2019-05-12T01:19:54.952Z,25.50
2019-05-12T01:22:28.754Z,22.80
2019-05-12T01:25:02.543Z,25.77
2019-05-12T01:27:37.877Z,23.32
2019-05-12T01:30:10.864Z,22.52
2019-05-12T01:32:43.759Z,24.18
2019-05-12T01:35:18.515Z,26.75
2019-05-12T01:37:52.870Z,32.00
2019-05-12T01:40:28.534Z,33.15
2019-05-12T01:43:01.773Z,30.20
2019-05-12T01:45:34.923Z,32.15
2019-05-12T01:48:09.167Z,28.62
2019-05-12T01:50:42.675Z,27.40
2019-05-12T01:53:15.144Z,24.07
2019-05-12T01:55:48.683Z,27.00
2019-05-12T01:58:22.040Z,26.00
2019-05-12T02:00:58.693Z,26.10
2019-05-12T02:03:31.579Z,24.02
2019-05-12T02:06:05.308Z,25.52
2019-05-12T02:08:47.594Z,24.05
2019-05-12T02:11:37.829Z,26.23
2019-05-12T02:14:10.898Z,23.18
2019-05-12T02:16:45.092Z,25.40
2019-05-12T02:19:18.741Z,23.57
2019-05-12T02:21:53.025Z,27.98
2019-05-12T02:24:30.463Z,26.80
2019-05-12T02:27:02.586Z,27.98
2019-05-12T02:29:38.361Z,22.95
2019-05-12T02:32:12.843Z,25.08
2019-05-12T02:34:47.597Z,27.98
2019-05-12T02:37:21.808Z,24.15
2019-05-12T02:39:55.796Z,30.15
2019-05-12T02:42:29.239Z,29.55
2019-05-12T02:45:05.562Z,25.43
2019-05-12T02:47:38.087Z,27.50
2019-05-12T02:50:14.507Z,25.15
2019-05-12T02:52:48.171Z,28.55
2019-05-12T02:55:25.632Z,27.42
2019-05-12T02:57:59.661Z,26.07
2019-05-12T03:00:36.690Z,30.40
2019-05-12T03:03:14.651Z,27.13
2019-05-12T03:05:54.740Z,28.30
2019-05-12T03:08:28.683Z,34.23
2019-05-12T03:11:05.963Z,31.12
2019-05-12T03:13:38.224Z,30.40
2019-05-12T03:16:14.692Z,27.27
2019-05-12T03:18:46.098Z,25.43
2019-05-12T03:21:19.470Z,29.80
2019-05-12T03:23:55.150Z,25.25
2019-05-12T03:26:28.709Z,26.90
2019-05-12T03:29:05.627Z,24.43
2019-05-12T03:31:40.992Z,29.23
2019-05-12T03:34:18.571Z,25.65
2019-05-12T03:36:51.337Z,22.62
2019-05-12T03:39:24.980Z,25.27
2019-05-12T03:41:58.419Z,22.85
2019-05-12T03:44:35.032Z,25.50
2019-05-12T03:47:06.810Z,26.20
2019-05-12T03:49:40.145Z,26.48
2019-05-12T03:52:15.246Z,28.60
2019-05-12T03:54:48.384Z,28.65
2019-05-12T03:57:21.625Z,31.85
2019-05-12T03:59:54.883Z,27.67
2019-05-12T04:02:28.626Z,29.23
2019-05-12T04:05:05.249Z,25.90
2019-05-12T04:07:38.297Z,29.98
2019-05-12T04:10:11.169Z,29.35
2019-05-12T04:12:44.957Z,30.70
2019-05-12T04:15:18.919Z,28.45
2019-05-12T04:17:54.329Z,28.77
2019-05-12T04:20:28.889Z,33.65
2019-05-12T04:23:06.014Z,32.67
2019-05-12T04:25:50.872Z,30.85
2019-05-12T04:28:15.027Z,31.90
2019-05-12T04:30:48.721Z,29.35
2019-05-12T04:33:25.441Z,31.93
2019-05-12T04:35:57.913Z,30.68
2019-05-12T04:38:30.346Z,28.87
2019-05-12T04:41:05.932Z,31.97
2019-05-12T04:43:38.592Z,32.88
2019-05-12T04:46:14.541Z,32.25
2019-05-12T04:48:48.330Z,31.57
2019-05-12T04:51:21.661Z,32.65
2019-05-12T04:53:55.111Z,35.58
2019-05-12T04:56:29.248Z,39.85
2019-05-12T04:59:05.021Z,39.58
2019-05-12T05:01:37.878Z,36.42
2019-05-12T05:04:11.695Z,36.48
2019-05-12T05:06:45.634Z,34.60
2019-05-12T05:09:19.912Z,34.60
2019-05-12T05:11:54.291Z,34.98
2019-05-12T05:14:27.903Z,34.83
2019-05-12T05:17:05.095Z,33.67
2019-05-12T05:19:36.786Z,33.45
2019-05-12T05:22:10.463Z,34.55
2019-05-12T05:24:44.375Z,32.60
2019-05-12T05:27:18.339Z,29.98
2019-05-12T05:29:54.354Z,36.17
2019-05-12T05:32:27.659Z,32.65
2019-05-12T05:35:03.353Z,32.17
2019-05-12T05:37:41.363Z,31.27
2019-05-12T05:40:14.083Z,31.50
2019-05-12T05:42:47.458Z,29.32
2019-05-12T05:45:24.155Z,29.00
2019-05-12T05:47:59.620Z,28.45
2019-05-12T05:50:30.992Z,27.87
2019-05-12T05:53:04.294Z,27.80
2019-05-12T05:55:37.781Z,25.95
2019-05-12T05:58:11.556Z,25.48
2019-05-12T06:00:45.299Z,27.52
2019-05-12T06:03:23.413Z,26.57
2019-05-12T06:05:53.517Z,24.05
2019-05-12T06:08:26.610Z,27.98
2019-05-12T06:11:00.479Z,25.68
2019-05-12T06:13:34.519Z,22.20
2019-05-12T06:16:13.753Z,25.90
2019-05-12T06:18:43.952Z,25.08
2019-05-12T06:21:18.570Z,29.67
2019-05-12T06:23:53.937Z,27.77
2019-05-12T06:26:32.488Z,24.30
2019-05-12T06:29:01.321Z,28.98
2019-05-12T06:31:36.021Z,28.47
2019-05-12T06:34:15.211Z,32.10
2019-05-12T06:36:45.584Z,30.50
2019-05-12T06:39:20.623Z,31.42
2019-05-12T06:41:56.704Z,33.42
2019-05-12T06:44:28.546Z,31.17
2019-05-12T06:47:06.899Z,30.20
2019-05-12T06:49:37.274Z,33.73
2019-05-12T06:52:10.503Z,34.40
2019-05-12T06:54:51.179Z,34.00
2019-05-12T06:57:25.080Z,30.08
2019-05-12T06:59:55.172Z,33.18
2019-05-12T07:02:30.280Z,32.58
2019-05-12T07:05:04.608Z,30.35
2019-05-12T07:07:42.197Z,32.08
2019-05-12T07:10:35.147Z,30.27
2019-05-12T07:12:59.029Z,33.98
2019-05-12T07:15:24.116Z,30.45
2019-05-12T07:18:04.246Z,31.02
2019-05-12T07:20:38.979Z,36.00
2019-05-12T07:23:14.216Z,36.80
2019-05-12T07:25:47.559Z,37.38
2019-05-12T07:28:23.550Z,35.03
2019-05-12T07:30:57.260Z,34.67
2019-05-12T07:33:35.170Z,37.17
2019-05-12T07:36:08.429Z,37.38
2019-05-12T07:38:43.995Z,38.55
2019-05-12T07:41:19.518Z,38.90
2019-05-12T07:43:56.776Z,38.53
2019-05-12T07:46:29.204Z,39.25
2019-05-12T07:49:03.918Z,40.90
2019-05-12T07:51:40.509Z,42.98
2019-05-12T07:54:14.305Z,40.58
2019-05-12T07:56:48.226Z,43.13
2019-05-12T07:59:21.077Z,42.58
2019-05-12T08:01:54.996Z,46.02
2019-05-12T08:04:31.685Z,37.85
2019-05-12T08:07:04.164Z,16.77
2019-05-12T08:09:38.538Z,13.48
2019-05-12T08:12:16.313Z,10.40
2019-05-12T08:14:45.765Z,12.47
2019-05-12T08:17:19.636Z,7.62
2019-05-12T08:19:53.610Z,6.12
2019-05-12T08:22:29.340Z,7.03
2019-05-12T08:25:01.248Z,5.03
2019-05-12T08:27:39.142Z,6.28
2019-05-12T08:30:10.269Z,6.67
2019-05-12T08:32:44.254Z,6.97
2019-05-12T08:35:25.569Z,7.20
2019-05-12T08:37:54.436Z,6.78
2019-05-12T08:40:27.185Z,8.05
2019-05-12T08:43:08.071Z,6.22
2019-05-12T08:45:37.347Z,7.58
2019-05-12T08:48:16.041Z,7.25
2019-05-12T08:50:45.986Z,6.50
2019-05-12T08:53:20.698Z,8.10
2019-05-12T08:55:53.897Z,6.83
2019-05-12T08:58:33.626Z,9.18
2019-05-12T09:01:04.402Z,7.80
2019-05-12T09:03:38.360Z,8.25
2019-05-12T09:06:15.491Z,8.60
2019-05-12T09:08:49.194Z,10.10
2019-05-12T09:11:21.262Z,7.37
2019-05-12T09:14:00.658Z,7.70
2019-05-12T09:16:29.523Z,6.80
2019-05-12T09:19:04.936Z,8.60
2019-05-12T09:21:38.705Z,7.65
2019-05-12T09:24:14.958Z,7.42
2019-05-12T09:26:47.413Z,11.18
2019-05-12T09:29:21.020Z,8.75
2019-05-12T09:31:59.252Z,8.15
2019-05-12T09:34:29.438Z,8.73
2019-05-12T09:37:06.142Z,8.00
2019-05-12T09:39:47.288Z,7.53
2019-05-12T09:42:19.341Z,7.87
2019-05-12T09:44:50.567Z,7.78
2019-05-12T09:47:27.575Z,8.50
2019-05-12T09:50:00.787Z,6.37
2019-05-12T09:52:33.928Z,6.55
2019-05-12T09:55:06.991Z,6.60
2019-05-12T09:57:42.963Z,5.83
2019-05-12T10:00:18.267Z,6.65
2019-05-12T10:02:59.368Z,5.80
2019-05-12T10:05:30.401Z,5.55
2019-05-12T10:08:04.499Z,7.25
2019-05-12T10:10:41.465Z,7.83
2019-05-12T10:13:15.190Z,5.70
2019-05-12T10:15:48.885Z,4.87
2019-05-12T10:18:24.359Z,4.58
2019-05-12T10:20:56.708Z,5.17
2019-05-12T10:23:30.586Z,4.03
2019-05-12T10:26:09.431Z,5.42
2019-05-12T10:28:43.728Z,5.00
2019-05-12T10:31:18.749Z,4.53
2019-05-12T10:33:57.154Z,4.40
2019-05-12T10:36:30.298Z,4.75
2019-05-12T10:39:04.260Z,5.00
2019-05-12T10:41:38.348Z,6.12
2019-05-12T10:44:10.385Z,5.20
2019-05-12T10:46:44.569Z,5.47
2019-05-12T10:49:19.220Z,5.72
2019-05-12T10:51:53.996Z,4.90
2019-05-12T10:54:26.562Z,5.42
2019-05-12T10:56:58.941Z,4.83
2019-05-12T10:59:38.266Z,4.60
2019-05-12T11:02:13.814Z,5.92
2019-05-12T11:04:46.293Z,5.28
2019-05-12T11:07:22.911Z,8.58
2019-05-12T11:09:54.431Z,6.25
2019-05-12T11:12:29.217Z,7.20
2019-05-12T11:15:06.789Z,7.03
2019-05-12T11:17:53.560Z,9.18
2019-05-12T11:20:27.024Z,5.58
2019-05-12T11:22:59.331Z,4.45
2019-05-12T11:25:34.013Z,6.83
2019-05-12T11:28:06.317Z,5.80
2019-05-12T11:30:39.591Z,4.58
2019-05-12T11:33:13.290Z,5.17
2019-05-12T11:35:47.088Z,7.95
2019-05-12T11:38:20.016Z,6.72
2019-05-12T11:40:53.817Z,8.98
2019-05-12T11:43:29.570Z,6.85
2019-05-12T11:46:01.818Z,7.95
2019-05-12T11:48:35.241Z,8.38
2019-05-12T11:51:08.672Z,10.38
2019-05-12T11:53:41.639Z,10.82
2019-05-12T11:56:14.822Z,11.20
2019-05-12T11:58:51.516Z,9.70
2019-05-12T12:01:24.651Z,9.40
2019-05-12T12:03:57.498Z,10.88
2019-05-12T12:06:30.385Z,8.98
2019-05-12T12:09:09.265Z,10.60
2019-05-12T12:11:43.224Z,9.00
2019-05-12T12:14:16.453Z,9.73
2019-05-12T12:16:50.315Z,9.80
2019-05-12T12:19:33.568Z,9.53
2019-05-12T12:21:59.807Z,11.83
2019-05-12T12:24:33.622Z,11.65
2019-05-12T12:27:06.939Z,12.07
2019-05-12T12:29:40.208Z,12.30
2019-05-12T12:32:18.536Z,13.40
2019-05-12T12:34:47.712Z,14.75
2019-05-12T12:37:24.443Z,13.48
2019-05-12T12:39:58.193Z,15.18
2019-05-12T12:42:35.409Z,16.20
2019-05-12T12:45:18.784Z,15.65
2019-05-12T12:47:53.931Z,16.77
2019-05-12T12:50:30.362Z,19.60
2019-05-12T12:53:00.497Z,14.73
2019-05-12T12:55:32.932Z,19.15
2019-05-12T12:58:05.407Z,15.28
2019-05-12T13:00:47.123Z,17.15
2019-05-12T13:03:14.390Z,17.05
2019-05-12T13:05:46.769Z,16.95
2019-05-12T13:08:21.593Z,15.30
2019-05-12T13:10:54.195Z,13.35
2019-05-12T13:13:28.521Z,16.10
2019-05-12T13:16:01.016Z,14.13
2019-05-12T13:18:36.352Z,13.98
2019-05-12T13:21:09.255Z,13.98
2019-05-12T13:23:42.284Z,12.73
2019-05-12T13:26:15.229Z,12.30
2019-05-12T13:28:53.152Z,13.43
2019-05-12T13:31:24.347Z,15.60
2019-05-12T13:33:57.464Z,13.00
2019-05-12T13:36:37.376Z,13.98
2019-05-12T13:39:11.545Z,13.75
2019-05-12T13:41:45.262Z,11.70
2019-05-12T13:44:17.885Z,14.80
2019-05-12T13:46:54.706Z,14.18
2019-05-12T13:49:30.008Z,10.95
2019-05-12T13:52:04.103Z,11.00
2019-05-12T13:54:37.398Z,11.18
2019-05-12T13:57:13.420Z,10.08
2019-05-12T13:59:47.997Z,12.10
2019-05-12T14:02:23.457Z,9.70
2019-05-12T14:05:00.463Z,8.78
2019-05-12T14:07:34.427Z,13.20
2019-05-12T14:10:06.661Z,9.65
2019-05-12T14:12:39.556Z,7.67
2019-05-12T14:15:14.174Z,11.30
2019-05-12T14:17:48.144Z,8.88
2019-05-12T14:20:20.848Z,9.48
2019-05-12T14:22:54.231Z,10.45
2019-05-12T14:25:30.757Z,8.03
2019-05-12T14:28:05.580Z,5.15
2019-05-12T14:30:41.281Z,11.50
2019-05-12T14:33:10.699Z,7.35
2019-05-12T14:35:46.018Z,11.22
2019-05-12T14:38:19.230Z,10.35
2019-05-12T14:40:53.642Z,9.40
2019-05-12T14:43:26.415Z,5.65
2019-05-12T14:46:04.939Z,8.13
2019-05-12T14:48:34.292Z,7.95
2019-05-12T14:51:07.515Z,6.67
2019-05-12T14:53:40.550Z,6.12
2019-05-12T14:56:14.101Z,4.62
2019-05-12T14:58:50.224Z,5.72
2019-05-12T15:01:23.692Z,5.08
2019-05-12T15:03:55.795Z,6.10
2019-05-12T15:06:29.573Z,5.65
2019-05-12T15:09:04.474Z,6.45
2019-05-12T15:11:36.484Z,4.55
2019-05-12T15:14:09.904Z,4.97
2019-05-12T15:16:44.714Z,5.17
2019-05-12T15:19:20.920Z,6.22
2019-05-12T15:21:53.617Z,5.67
2019-05-12T15:24:26.576Z,6.37
2019-05-12T15:27:00.815Z,6.28
2019-05-12T15:29:33.888Z,8.78
2019-05-12T15:32:06.123Z,9.50
2019-05-12T15:34:39.203Z,6.15
2019-05-12T15:37:12.872Z,8.75
2019-05-12T15:39:46.024Z,6.90
2019-05-12T15:42:19.004Z,5.65
2019-05-12T15:44:53.618Z,9.23
2019-05-12T15:47:29.577Z,6.50
2019-05-12T15:50:00.756Z,7.00
2019-05-12T15:52:38.330Z,5.35
2019-05-12T15:55:07.914Z,8.45
2019-05-12T15:57:40.032Z,5.80
2019-05-12T16:00:16.952Z,7.08
2019-05-12T16:02:48.864Z,7.25
2019-05-12T16:05:28.795Z,8.80
2019-05-12T16:07:57.510Z,8.93
2019-05-12T16:10:29.956Z,6.12
2019-05-12T16:13:02.291Z,9.25
2019-05-12T16:15:36.527Z,5.72
2019-05-12T16:18:10.213Z,5.47
2019-05-12T16:20:44.152Z,6.40
2019-05-12T16:23:24.960Z,8.65
2019-05-12T16:25:53.972Z,6.65
2019-05-12T16:28:26.670Z,9.68
2019-05-12T16:31:06.717Z,5.83
2019-05-12T16:33:36.030Z,7.60
2019-05-12T16:36:11.463Z,7.17
2019-05-12T16:38:44.533Z,9.05
2019-05-12T16:41:19.845Z,7.75
2019-05-12T16:43:53.746Z,6.25
2019-05-12T16:46:26.957Z,9.05
2019-05-12T16:49:00.308Z,7.22
2019-05-12T16:51:35.241Z,4.65
2019-05-12T16:54:08.313Z,8.55
2019-05-12T16:56:43.231Z,6.65
2019-05-12T16:59:21.691Z,7.03
2019-05-12T17:01:50.680Z,8.33
2019-05-12T17:04:23.930Z,6.62
2019-05-12T17:06:56.464Z,6.65
2019-05-12T17:09:28.936Z,7.53
2019-05-12T17:12:01.769Z,7.62
2019-05-12T17:14:36.617Z,7.72
2019-05-12T17:17:10.888Z,6.70
2019-05-12T17:19:44.379Z,6.47
2019-05-12T17:22:18.648Z,5.17
2019-05-12T17:24:53.785Z,10.40
2019-05-12T17:27:28.202Z,4.45
2019-05-12T17:30:04.318Z,7.67
2019-05-12T17:32:36.604Z,5.92
2019-05-12T17:35:10.863Z,10.60
2019-05-12T17:37:43.337Z,6.47
2019-05-12T17:40:19.978Z,8.30
2019-05-12T17:42:49.847Z,9.25
2019-05-12T17:45:23.572Z,6.87
2019-05-12T17:48:03.001Z,6.65
2019-05-12T17:50:31.431Z,6.25
2019-05-12T17:53:04.460Z,7.67
2019-05-12T17:55:42.698Z,5.30
2019-05-12T17:58:13.780Z,5.85
2019-05-12T18:00:51.522Z,7.33
2019-05-12T18:03:23.002Z,5.72
2019-05-12T18:05:54.692Z,8.88
2019-05-12T18:08:32.505Z,8.33
2019-05-12T18:11:03.695Z,6.65
2019-05-12T18:13:39.962Z,8.35
2019-05-12T18:16:20.754Z,6.12
2019-05-12T18:18:46.818Z,10.15
2019-05-12T18:21:22.406Z,4.87
2019-05-12T18:23:54.773Z,4.78
2019-05-12T18:26:27.650Z,10.35
2019-05-12T18:29:00.115Z,7.87
2019-05-12T18:31:33.452Z,7.15
2019-05-12T18:34:07.498Z,4.85
2019-05-12T18:36:40.420Z,8.13
2019-05-12T18:39:15.221Z,5.45
2019-05-12T18:41:48.081Z,5.83
2019-05-12T18:44:26.273Z,6.42
2019-05-12T18:46:56.242Z,5.03
2019-05-12T18:49:29.251Z,7.12
2019-05-12T18:52:03.891Z,7.47
2019-05-12T18:54:35.457Z,8.78
2019-05-12T18:57:08.312Z,5.60
2019-05-12T18:59:46.087Z,9.13
2019-05-12T19:02:22.816Z,7.47
2019-05-12T19:04:49.495Z,6.85
2019-05-12T19:07:35.893Z,6.45
2019-05-12T19:09:58.058Z,6.45
2019-05-12T19:12:35.220Z,5.28
2019-05-12T19:15:10.128Z,6.15
2019-05-12T19:17:43.564Z,5.42
2019-05-12T19:20:15.911Z,5.20
2019-05-12T19:22:57.332Z,6.55
2019-05-12T19:25:23.822Z,6.60
2019-05-12T19:28:06.074Z,5.37
2019-05-12T19:30:31.481Z,5.78
2019-05-12T19:33:06.532Z,6.15
2019-05-12T19:35:38.685Z,6.83
2019-05-12T19:38:15.029Z,5.87
2019-05-12T19:40:54.954Z,5.58
2019-05-12T19:43:23.717Z,6.87
2019-05-12T19:46:02.938Z,4.58
2019-05-12T19:48:35.151Z,4.97
2019-05-12T19:51:20.351Z,7.58
2019-05-12T19:53:39.453Z,4.95
2019-05-12T19:56:14.115Z,6.45
2019-05-12T19:58:47.142Z,6.45
2019-05-12T20:01:26.141Z,8.40
2019-05-12T20:03:57.994Z,8.13
2019-05-12T20:06:30.407Z,7.28
2019-05-12T20:09:08.232Z,6.78
2019-05-12T20:11:38.721Z,8.35
2019-05-12T20:14:19.058Z,5.80
2019-05-12T20:16:46.728Z,7.75
2019-05-12T20:19:25.516Z,7.70
2019-05-12T20:21:55.834Z,6.62
2019-05-12T20:24:29.794Z,8.30
2019-05-12T20:27:04.141Z,9.78
2019-05-12T20:29:38.019Z,8.85
2019-05-12T20:32:13.940Z,8.20
2019-05-12T20:34:52.084Z,7.97
2019-05-12T20:37:22.959Z,6.40
2019-05-12T20:40:02.129Z,7.10
2019-05-12T20:42:41.943Z,8.20
2019-05-12T20:45:08.436Z,7.12
2019-05-12T20:47:44.952Z,8.43
2019-05-12T20:50:17.626Z,6.42
2019-05-12T20:52:57.674Z,8.93
2019-05-12T20:55:25.075Z,7.60
2019-05-12T20:57:59.528Z,8.90
2019-05-12T21:00:39.022Z,9.95
2019-05-12T21:03:13.837Z,9.08
2019-05-12T21:05:50.537Z,7.15
2019-05-12T21:08:27.299Z,8.33
2019-05-12T21:11:01.128Z,8.00
2019-05-12T21:13:34.624Z,7.53
2019-05-12T21:16:16.431Z,8.98
2019-05-12T21:18:49.849Z,7.83
2019-05-12T21:21:27.612Z,8.10
2019-05-12T21:23:59.181Z,7.92
2019-05-12T21:26:48.480Z,11.50
2019-05-12T21:29:25.446Z,12.55
2019-05-12T21:32:02.909Z,13.80
2019-05-12T21:34:34.516Z,10.28
2019-05-12T21:37:07.492Z,8.30
2019-05-12T21:39:45.643Z,10.30
2019-05-12T21:42:15.403Z,11.15
2019-05-12T21:44:49.031Z,8.60
2019-05-12T21:47:24.297Z,9.48
2019-05-12T21:49:58.104Z,13.22
2019-05-12T21:52:39.032Z,9.10
2019-05-12T21:55:15.355Z,10.60
2019-05-12T21:57:44.099Z,12.40
2019-05-12T22:00:27.599Z,8.83
2019-05-12T22:03:02.606Z,7.75
2019-05-12T22:05:50.573Z,7.42
2019-05-12T22:08:17.576Z,11.85
2019-05-12T22:10:46.747Z,10.28
2019-05-12T22:13:21.020Z,10.98
2019-05-12T22:15:57.130Z,10.45
2019-05-12T22:18:30.105Z,10.98
2019-05-12T22:21:06.802Z,9.68
2019-05-12T22:23:42.970Z,10.50
2019-05-12T22:26:14.288Z,12.65
2019-05-12T22:28:50.922Z,9.30
2019-05-12T22:31:24.247Z,8.95
2019-05-12T22:33:58.380Z,8.88
2019-05-12T22:36:33.624Z,8.93
2019-05-12T22:39:09.249Z,12.75
2019-05-12T22:41:43.430Z,9.78
2019-05-12T22:44:20.904Z,10.58
2019-05-12T22:46:50.951Z,10.95
2019-05-12T22:49:25.374Z,10.60
2019-05-12T22:52:02.702Z,10.43
2019-05-12T22:54:34.680Z,8.63
2019-05-12T22:57:08.643Z,9.50
2019-05-12T22:59:44.835Z,10.72
2019-05-12T23:02:28.044Z,11.10
2019-05-12T23:04:55.000Z,10.08
2019-05-12T23:07:29.933Z,12.80
2019-05-12T23:10:06.939Z,13.85
2019-05-12T23:12:39.755Z,11.15
2019-05-12T23:15:14.073Z,13.28
2019-05-12T23:17:49.350Z,11.50
2019-05-12T23:20:25.521Z,13.13
2019-05-12T23:22:59.695Z,12.23
2019-05-12T23:25:33.777Z,13.68
2019-05-12T23:28:10.400Z,14.70
2019-05-12T23:30:48.471Z,13.43
2019-05-12T23:33:17.888Z,14.58
2019-05-12T23:35:53.558Z,14.98
2019-05-12T23:38:25.786Z,15.28
2019-05-12T23:40:59.162Z,13.40
2019-05-12T23:43:34.139Z,15.00
2019-05-12T23:46:08.171Z,14.05
2019-05-12T23:48:43.955Z,13.30
2019-05-12T23:51:17.529Z,12.50
2019-05-12T23:53:50.335Z,13.22
2019-05-12T23:56:23.590Z,14.55
2019-05-12T23:58:57.424Z,15.40
